Time;durP1;ratioP1;P1;durP2;ratioP2;P2;SDS_P1;SDS_P2;PMS_P1;PMS_P2;Temp;Humidity;BMP_temperature;BMP_pressure;BME280_temperature;BME280_humidity;BME280_pressure;Samples;Min_cycle;Max_cycle;Signal;HPM_P1;HPM_P2
2022/10/26 00:01:46;;;;;;;3.13;2.58;;;10.30;99.90;;;;;;5016140;28;20048;-75
2022/10/26 00:04:13;;;;;;;4.80;2.67;;;10.20;99.90;;;;;;5023317;28;20054;-74
2022/10/26 00:06:39;;;;;;;3.97;3.08;;;10.30;99.90;;;;;;5024024;28;20033;-74
2022/10/26 00:09:05;;;;;;;7.97;3.80;;;10.30;99.90;;;;;;5025042;28;20040;-74
2022/10/26 00:11:32;;;;;;;7.38;3.35;;;10.30;99.90;;;;;;5017546;28;20477;-74
2022/10/26 00:13:58;;;;;;;4.07;3.40;;;10.30;99.90;;;;;;5025388;28;20033;-74
2022/10/26 00:16:26;;;;;;;4.10;2.50;;;10.30;99.90;;;;;;4991304;28;20042;-74
2022/10/26 00:18:53;;;;;;;6.55;3.42;;;10.30;99.90;;;;;;5023556;28;20428;-74
2022/10/26 00:21:19;;;;;;;3.03;2.50;;;10.40;99.90;;;;;;5019167;28;20407;-74
2022/10/26 00:23:45;;;;;;;4.13;1.92;;;10.40;99.90;;;;;;5022757;28;20049;-74
2022/10/26 00:26:12;;;;;;;3.92;2.83;;;10.40;99.90;;;;;;5022026;28;20393;-72
2022/10/26 00:28:38;;;;;;;6.22;3.58;;;10.40;99.90;;;;;;5024426;28;20029;-74
2022/10/26 00:31:08;;;;;;;6.90;4.40;;;10.40;99.90;;;;;;5020403;28;20070;-74
2022/10/26 00:33:34;;;;;;;5.80;3.70;;;10.40;99.90;;;;;;5021495;28;20040;-74
2022/10/26 00:36:00;;;;;;;4.43;3.60;;;10.40;99.90;;;;;;5016995;28;20392;-73
2022/10/26 00:38:27;;;;;;;6.38;4.18;;;10.40;99.90;;;;;;5020688;28;20052;-73
2022/10/26 00:40:53;;;;;;;7.13;3.97;;;10.40;99.90;;;;;;5016118;28;20037;-74
2022/10/26 00:43:26;;;;;;;5.50;3.25;;;10.40;99.90;;;;;;5021693;28;20535;-74
2022/10/26 00:45:55;;;;;;;5.72;3.33;;;10.40;99.90;;;;;;5021138;28;20041;-74
2022/10/26 00:48:28;;;;;;;6.63;3.70;;;10.40;99.90;;;;;;4989760;28;20045;-74
2022/10/26 00:50:57;;;;;;;;;;;10.40;99.90;;;;;;5014442;28;20578;-72
2022/10/26 00:53:23;;;;;;;2.65;2.10;;;10.40;99.90;;;;;;5015874;28;19924;-74
2022/10/26 00:55:52;;;;;;;5.15;3.30;;;10.40;99.90;;;;;;5018740;28;20045;-75
2022/10/26 00:58:20;;;;;;;6.40;3.83;;;10.40;99.90;;;;;;5023034;28;20498;-74
2022/10/26 01:00:48;;;;;;;8.43;4.78;;;10.40;99.90;;;;;;5000410;28;20038;-73
2022/10/26 01:03:15;;;;;;;6.22;3.72;;;10.50;99.90;;;;;;5021014;28;20802;-73
2022/10/26 01:05:45;;;;;;;4.85;3.28;;;10.50;99.90;;;;;;5023846;28;20037;-74
2022/10/26 01:08:12;;;;;;;6.13;2.58;;;10.60;99.90;;;;;;5028328;28;20036;-75
2022/10/26 01:10:40;;;;;;;8.77;3.35;;;10.60;99.90;;;;;;5017493;28;20032;-74
2022/10/26 01:13:07;;;;;;;5.60;2.97;;;10.70;99.90;;;;;;5005902;28;20030;-73
2022/10/26 01:16:10;;;;;;;8.07;3.97;;;10.70;99.90;;;;;;5006651;28;20045;-73
2022/10/26 01:19:05;;;;;;;6.18;2.90;;;10.70;99.90;;;;;;5015855;28;20527;-73
2022/10/26 01:21:49;;;;;;;5.95;3.35;;;10.70;99.90;;;;;;5011432;28;20492;-74
2022/10/26 01:24:35;;;;;;;5.43;2.50;;;10.80;99.90;;;;;;5025453;28;20055;-74
2022/10/26 01:27:27;;;;;;;4.68;3.15;;;10.80;99.90;;;;;;5009882;28;20037;-73
2022/10/26 01:30:30;;;;;;;5.95;2.90;;;10.80;99.90;;;;;;5022343;28;20512;-74
2022/10/26 01:33:06;;;;;;;;;;;10.90;99.90;;;;;;5024832;28;20063;-73
2022/10/26 01:35:48;;;;;;;11.10;4.22;;;10.90;99.90;;;;;;5023438;28;20240;-72
2022/10/26 01:39:01;;;;;;;9.48;3.70;;;10.90;99.90;;;;;;5026869;28;20037;-73
2022/10/26 01:41:34;;;;;;;4.43;2.63;;;10.90;99.90;;;;;;4998350;28;20045;-74
2022/10/26 01:44:17;;;;;;;5.18;2.60;;;10.90;99.90;;;;;;5004795;28;20040;-73
2022/10/26 01:46:47;;;;;;;6.03;2.78;;;10.90;99.90;;;;;;5024259;28;20084;-73
2022/10/26 01:49:18;;;;;;;5.60;3.40;;;10.90;99.90;;;;;;5025337;28;20037;-73
2022/10/26 01:51:47;;;;;;;5.00;2.92;;;10.90;99.90;;;;;;5018779;28;20489;-73
2022/10/26 01:54:14;;;;;;;6.10;3.30;;;10.90;99.90;;;;;;5022531;28;20041;-73
2022/10/26 01:56:45;;;;;;;3.88;3.13;;;10.90;99.90;;;;;;5008935;28;20033;-74
2022/10/26 01:59:11;;;;;;;8.65;4.00;;;10.90;99.90;;;;;;5024192;28;20123;-73
2022/10/26 02:02:08;;;;;;;5.75;3.00;;;10.80;99.90;;;;;;5020538;28;20044;-73
2022/10/26 02:04:40;;;;;;;6.43;3.58;;;10.80;99.90;;;;;;5024290;28;20116;-72
2022/10/26 02:07:20;;;;;;;4.35;2.38;;;10.80;99.90;;;;;;5025970;28;20029;-73
2022/10/26 02:10:05;;;;;;;5.68;2.95;;;10.80;99.90;;;;;;5019644;28;20045;-72
2022/10/26 02:12:43;;;;;;;7.95;3.88;;;10.70;99.90;;;;;;5025764;28;20053;-73
2022/10/26 02:15:19;;;;;;;7.03;3.78;;;10.70;99.90;;;;;;5022036;28;20376;-73
2022/10/26 02:18:08;;;;;;;5.30;2.80;;;10.60;99.90;;;;;;5024151;28;20068;-73
2022/10/26 02:20:43;;;;;;;4.70;2.60;;;10.60;99.90;;;;;;5020634;28;20041;-74
2022/10/26 02:23:11;;;;;;;9.88;3.17;;;10.60;99.90;;;;;;5023943;28;20115;-74
2022/10/26 02:25:49;;;;;;;5.20;2.88;;;10.60;99.90;;;;;;5023880;28;20038;-74
2022/10/26 02:28:21;;;;;;;4.28;2.92;;;10.60;99.90;;;;;;5023888;28;20044;-73
2022/10/26 02:30:51;;;;;;;5.35;3.40;;;10.60;99.90;;;;;;5018931;28;20068;-74
2022/10/26 02:33:19;;;;;;;7.13;2.85;;;10.60;99.90;;;;;;5025098;28;20037;-73
2022/10/26 02:35:51;;;;;;;8.05;3.78;;;10.60;99.90;;;;;;5008358;28;20037;-73
2022/10/26 02:38:20;;;;;;;5.82;3.72;;;10.70;99.90;;;;;;5025826;28;20029;-73
2022/10/26 02:40:50;;;;;;;5.88;3.95;;;10.70;99.90;;;;;;5020386;28;20827;-73
2022/10/26 02:43:21;;;;;;;7.93;3.80;;;10.70;99.90;;;;;;5022232;28;20044;-73
2022/10/26 02:46:00;;;;;;;12.48;4.13;;;10.80;99.90;;;;;;5006393;28;20053;-74
2022/10/26 02:48:26;;;;;;;7.88;4.05;;;10.80;99.90;;;;;;5023507;28;20515;-73
2022/10/26 02:51:25;;;;;;;4.07;3.17;;;10.80;99.90;;;;;;5020335;28;20037;-73
2022/10/26 02:53:59;;;;;;;7.22;3.38;;;10.90;99.90;;;;;;5023750;28;20045;-73
2022/10/26 02:56:31;;;;;;;5.15;2.90;;;10.90;99.90;;;;;;5025778;28;20041;-73
2022/10/26 02:59:04;;;;;;;7.65;4.30;;;10.90;99.90;;;;;;5008366;28;20044;-72
2022/10/26 03:01:31;;;;;;;;;;;11.00;99.90;;;;;;5019422;28;20041;-72
2022/10/26 03:03:58;;;;;;;6.60;3.63;;;11.00;99.90;;;;;;5022407;28;19917;-73
2022/10/26 03:06:25;;;;;;;5.00;3.28;;;11.00;99.90;;;;;;5022574;28;20064;-74
2022/10/26 03:08:52;;;;;;;6.82;3.80;;;11.10;99.90;;;;;;5022224;28;20049;-74
2022/10/26 03:11:18;;;;;;;7.32;4.15;;;11.10;99.90;;;;;;5018011;28;20061;-74
2022/10/26 03:13:44;;;;;;;7.53;3.97;;;11.10;99.90;;;;;;5020147;28;20443;-74
2022/10/26 03:16:11;;;;;;;4.63;3.35;;;11.10;99.90;;;;;;5022193;28;20033;-74
2022/10/26 03:18:37;;;;;;;7.68;4.68;;;11.20;99.90;;;;;;5024313;28;20481;-73
2022/10/26 03:21:03;;;;;;;6.10;3.85;;;11.20;99.90;;;;;;5000288;28;20048;-73
2022/10/26 03:23:30;;;;;;;6.80;3.03;;;11.30;99.90;;;;;;5021578;28;20041;-72
2022/10/26 03:25:57;;;;;;;6.18;3.20;;;11.30;99.90;;;;;;5020584;28;20499;-72
2022/10/26 03:28:23;;;;;;;5.80;3.13;;;11.30;99.90;;;;;;5023615;28;20762;-72
2022/10/26 03:30:50;;;;;;;7.90;3.50;;;11.30;99.90;;;;;;5017784;28;20044;-74
2022/10/26 03:33:16;;;;;;;5.82;3.95;;;11.40;99.90;;;;;;5021297;28;20065;-74
2022/10/26 03:35:43;;;;;;;7.03;3.30;;;11.40;99.90;;;;;;5022316;28;20021;-75
2022/10/26 03:38:09;;;;;;;8.50;3.20;;;11.40;99.90;;;;;;5023231;28;20762;-74
2022/10/26 03:40:36;;;;;;;3.85;3.00;;;11.40;99.90;;;;;;5018388;28;20041;-74
2022/10/26 03:43:02;;;;;;;4.03;3.17;;;11.40;99.90;;;;;;5022975;28;20036;-74
2022/10/26 03:45:29;;;;;;;6.82;3.50;;;11.40;99.90;;;;;;5020484;28;20037;-73
2022/10/26 03:47:55;;;;;;;5.65;3.35;;;11.50;99.90;;;;;;5023738;28;20835;-74
2022/10/26 03:50:22;;;;;;;4.72;3.05;;;11.50;99.90;;;;;;4999959;28;20037;-74
2022/10/26 03:52:48;;;;;;;5.63;3.33;;;11.50;99.90;;;;;;5020846;28;20053;-74
2022/10/26 03:55:15;;;;;;;7.43;3.33;;;11.50;99.90;;;;;;5020458;28;20017;-73
2022/10/26 03:57:45;;;;;;;5.38;2.92;;;11.50;99.90;;;;;;5005068;28;20037;-73
2022/10/26 04:00:14;;;;;;;4.60;2.65;;;11.50;99.90;;;;;;5015913;28;20037;-73
2022/10/26 04:02:52;;;;;;;6.22;2.97;;;11.50;99.90;;;;;;5022185;28;20264;-72
2022/10/26 04:05:18;;;;;;;5.90;2.83;;;11.40;99.90;;;;;;5019548;28;20037;-74
2022/10/26 04:07:51;;;;;;;7.43;2.55;;;11.40;99.90;;;;;;5022104;28;20029;-74
2022/10/26 04:10:18;;;;;;;5.18;3.00;;;11.40;99.90;;;;;;5018030;28;20037;-74
2022/10/26 04:12:44;;;;;;;4.75;2.28;;;11.40;99.90;;;;;;5021016;28;20048;-74
2022/10/26 04:15:10;;;;;;;5.75;2.70;;;11.30;99.90;;;;;;5020546;28;20050;-72
2022/10/26 04:17:36;;;;;;;5.10;2.92;;;11.30;99.90;;;;;;5023550;28;20065;-73
2022/10/26 04:20:03;;;;;;;6.45;3.05;;;11.30;99.90;;;;;;5018811;28;20037;-73
2022/10/26 04:22:29;;;;;;;6.47;2.60;;;11.20;99.90;;;;;;5022718;28;20037;-73
2022/10/26 04:24:56;;;;;;;5.15;2.42;;;11.20;99.90;;;;;;5020972;28;20440;-73
2022/10/26 04:27:22;;;;;;;4.18;2.00;;;11.20;99.90;;;;;;4989904;28;20492;-73
2022/10/26 04:29:48;;;;;;;4.45;2.03;;;11.10;99.90;;;;;;5020792;28;20045;-72
2022/10/26 04:32:14;;;;;;;5.85;2.45;;;11.10;99.90;;;;;;5022678;28;20041;-74
2022/10/26 04:34:41;;;;;;;6.47;2.25;;;11.10;99.90;;;;;;5020046;28;20037;-73
2022/10/26 04:37:07;;;;;;;5.03;2.50;;;11.00;99.90;;;;;;5023101;28;20045;-72
2022/10/26 04:39:33;;;;;;;4.53;2.25;;;11.00;99.90;;;;;;5021036;28;20487;-71
2022/10/26 04:41:59;;;;;;;4.70;2.45;;;11.00;99.90;;;;;;5019679;28;20041;-73
2022/10/26 04:44:26;;;;;;;7.50;2.95;;;11.00;99.90;;;;;;5005205;28;20451;-74
2022/10/26 04:46:52;;;;;;;6.30;3.00;;;10.90;99.90;;;;;;5028738;28;20033;-74
2022/10/26 04:49:18;;;;;;;4.78;2.88;;;10.90;99.90;;;;;;5029280;28;20033;-73
2022/10/26 04:51:44;;;;;;;5.78;2.78;;;10.90;99.90;;;;;;5004763;28;20040;-74
2022/10/26 04:54:10;;;;;;;4.65;2.85;;;10.90;99.90;;;;;;5026623;28;20056;-73
2022/10/26 04:56:37;;;;;;;5.82;3.90;;;10.90;99.90;;;;;;5028851;28;20490;-72
2022/10/26 04:59:03;;;;;;;8.65;3.03;;;10.90;99.90;;;;;;5028743;28;20036;-73
2022/10/26 05:01:30;;;;;;;9.02;3.72;;;10.80;99.90;;;;;;5022165;28;20033;-72
2022/10/26 05:03:57;;;;;;;4.78;2.97;;;10.90;99.90;;;;;;5027641;28;20108;-75
2022/10/26 05:06:23;;;;;;;6.00;2.92;;;10.80;99.90;;;;;;5024368;28;20041;-73
2022/10/26 05:08:49;;;;;;;4.40;2.83;;;10.90;99.90;;;;;;5026565;28;20791;-74
2022/10/26 05:11:15;;;;;;;3.95;3.13;;;10.90;99.90;;;;;;5021641;28;20423;-73
2022/10/26 05:13:42;;;;;;;5.63;2.60;;;10.90;99.90;;;;;;5025833;28;20033;-73
2022/10/26 05:16:08;;;;;;;5.07;3.08;;;10.90;99.90;;;;;;5028384;28;20029;-74
2022/10/26 05:18:34;;;;;;;6.57;3.47;;;10.90;99.90;;;;;;5028993;28;20045;-73
2022/10/26 05:21:01;;;;;;;6.40;3.38;;;11.00;99.90;;;;;;5021761;28;20033;-74
2022/10/26 05:23:27;;;;;;;6.63;3.17;;;11.00;99.90;;;;;;5028625;28;20508;-74
2022/10/26 05:25:54;;;;;;;4.68;2.88;;;11.10;99.90;;;;;;5025562;28;20484;-74
2022/10/26 05:28:21;;;;;;;7.75;3.78;;;11.10;99.90;;;;;;5026493;28;20400;-74
2022/10/26 05:30:47;;;;;;;8.40;4.25;;;11.20;99.90;;;;;;5021375;28;20386;-73
2022/10/26 05:33:14;;;;;;;3.63;2.78;;;11.20;99.90;;;;;;5009425;28;20419;-74
2022/10/26 05:35:40;;;;;;;5.03;2.83;;;11.20;99.90;;;;;;5027069;28;20033;-72
2022/10/26 05:38:08;;;;;;;8.27;3.25;;;11.30;99.90;;;;;;5026151;28;20049;-72
2022/10/26 05:40:34;;;;;;;5.97;2.97;;;11.30;99.90;;;;;;5019524;28;20049;-73
2022/10/26 05:43:01;;;;;;;3.92;2.60;;;11.30;99.90;;;;;;5009895;28;20041;-73
2022/10/26 05:45:27;;;;;;;3.97;2.42;;;11.30;99.90;;;;;;5008471;28;20055;-74
2022/10/26 05:47:54;;;;;;;5.40;1.95;;;11.40;99.90;;;;;;5024385;28;20033;-73
2022/10/26 05:50:20;;;;;;;6.38;2.67;;;11.40;99.90;;;;;;5019713;28;20041;-74
2022/10/26 05:52:48;;;;;;;4.57;2.03;;;11.40;99.90;;;;;;5007168;28;20054;-73
2022/10/26 05:55:17;;;;;;;6.55;2.70;;;11.40;99.90;;;;;;5024972;28;20025;-73
2022/10/26 05:57:43;;;;;;;4.43;1.70;;;11.50;99.90;;;;;;5024380;28;20029;-73
2022/10/26 06:00:15;;;;;;;5.53;2.40;;;11.50;99.90;;;;;;5020746;28;20029;-72
2022/10/26 06:03:06;;;;;;;4.60;2.72;;;11.50;99.90;;;;;;5023265;28;20044;-74
2022/10/26 06:05:37;;;;;;;3.80;2.35;;;11.50;99.90;;;;;;5023730;28;20065;-72
2022/10/26 06:08:09;;;;;;;3.50;1.95;;;11.50;99.90;;;;;;5025066;28;20041;-73
2022/10/26 06:10:37;;;;;;;4.80;2.10;;;11.50;99.90;;;;;;5001737;28;20040;-72
2022/10/26 06:13:03;;;;;;;6.75;2.63;;;11.50;99.90;;;;;;5023127;28;20499;-72
2022/10/26 06:15:35;;;;;;;4.05;2.92;;;11.50;99.90;;;;;;5025244;28;20052;-75
2022/10/26 06:18:19;;;;;;;5.47;2.88;;;11.50;99.90;;;;;;5026682;28;20052;-73
2022/10/26 06:21:07;;;;;;;7.30;3.28;;;11.50;99.90;;;;;;5019596;28;20034;-74
2022/10/26 06:23:56;;;;;;;5.45;2.70;;;11.50;99.90;;;;;;5006376;28;20037;-74
2022/10/26 06:26:44;;;;;;;3.33;2.25;;;11.50;99.90;;;;;;5006290;28;20389;-74
2022/10/26 06:29:48;;;;;;;3.67;1.77;;;11.50;99.90;;;;;;5021888;28;20377;-73
2022/10/26 06:32:16;;;;;;;5.82;2.08;;;11.40;99.90;;;;;;5014800;28;20042;-73
2022/10/26 06:34:47;;;;;;;3.85;1.95;;;11.40;99.90;;;;;;5021872;28;20476;-72
2022/10/26 06:37:14;;;;;;;4.05;2.10;;;11.40;99.90;;;;;;5022412;28;20579;-73
2022/10/26 06:39:46;;;;;;;3.65;1.67;;;11.40;99.90;;;;;;5022976;28;20669;-73
2022/10/26 06:42:12;;;;;;;4.63;1.93;;;11.40;99.90;;;;;;5023099;28;20036;-72
2022/10/26 06:44:39;;;;;;;3.20;1.30;;;11.40;99.90;;;;;;5022602;28;20034;-73
2022/10/26 06:47:08;;;;;;;3.15;1.60;;;11.40;99.90;;;;;;5024448;28;20100;-72
2022/10/26 06:49:47;;;;;;;2.67;1.60;;;11.40;99.90;;;;;;5021748;28;20041;-72
2022/10/26 06:52:30;;;;;;;4.75;1.80;;;11.50;99.90;;;;;;5021917;28;20048;-73
2022/10/26 06:54:57;;;;;;;4.85;1.25;;;11.50;99.90;;;;;;5020687;28;20041;-73
2022/10/26 06:57:32;;;;;;;6.57;2.05;;;11.50;99.90;;;;;;5021967;28;20388;-73
2022/10/26 07:00:19;;;;;;;3.20;1.92;;;11.50;99.90;;;;;;5019148;28;20589;-73
2022/10/26 07:02:46;;;;;;;3.50;2.50;;;11.50;99.90;;;;;;5021543;28;20033;-73
2022/10/26 07:05:13;;;;;;;7.28;2.28;;;11.60;99.90;;;;;;5004755;28;20029;-72
2022/10/26 07:07:42;;;;;;;4.28;2.15;;;11.60;99.90;;;;;;5023073;28;20036;-72
2022/10/26 07:10:09;;;;;;;5.20;2.30;;;11.60;99.90;;;;;;4998676;28;20041;-73
2022/10/26 07:12:36;;;;;;;4.32;1.98;;;11.60;99.90;;;;;;5021828;28;20280;-73
2022/10/26 07:15:04;;;;;;;4.03;2.70;;;11.70;99.90;;;;;;5020803;28;21041;-72
2022/10/26 07:17:31;;;;;;;7.13;2.33;;;11.70;99.90;;;;;;5022132;28;20061;-74
2022/10/26 07:19:57;;;;;;;4.20;2.78;;;11.70;99.90;;;;;;5019336;28;20037;-74
2022/10/26 07:22:24;;;;;;;2.42;1.73;;;11.80;99.90;;;;;;5005903;28;20057;-74
2022/10/26 07:24:50;;;;;;;6.85;1.50;;;11.90;99.90;;;;;;5020842;28;20397;-75
2022/10/26 07:27:20;;;;;;;7.93;2.70;;;12.00;99.90;;;;;;5021634;28;20045;-74
2022/10/26 07:29:46;;;;;;;4.63;2.22;;;12.10;99.90;;;;;;5018032;28;20041;-73
2022/10/26 07:32:12;;;;;;;5.45;3.08;;;12.20;99.90;;;;;;5022511;28;20029;-75
2022/10/26 07:34:39;;;;;;;4.35;2.15;;;12.40;99.90;;;;;;5027824;28;20029;-76
2022/10/26 07:37:05;;;;;;;9.25;2.50;;;12.50;99.90;;;;;;5026216;28;20052;-75
2022/10/26 07:39:31;;;;;;;5.90;2.50;;;12.60;99.90;;;;;;5023570;28;20041;-74
2022/10/26 07:41:58;;;;;;;3.60;1.40;;;12.60;99.90;;;;;;5001994;28;20037;-75
2022/10/26 07:44:24;;;;;;;7.05;2.78;;;12.70;99.90;;;;;;5023536;28;20045;-74
2022/10/26 07:46:50;;;;;;;6.75;2.67;;;12.70;99.90;;;;;;5021701;28;20033;-76
2022/10/26 07:49:17;;;;;;;8.52;3.03;;;12.80;99.90;;;;;;5021970;28;20482;-75
2022/10/26 07:51:43;;;;;;;12.30;11.02;;;12.80;99.90;;;;;;5017315;28;20029;-74
2022/10/26 07:54:10;;;;;;;8.55;4.80;;;12.80;99.90;;;;;;5005971;28;20033;-74
2022/10/26 07:56:36;;;;;;;6.43;3.28;;;12.90;99.90;;;;;;5023639;28;20037;-74
2022/10/26 07:59:02;;;;;;;6.38;2.80;;;13.00;99.90;;;;;;5028879;28;20435;-75
2022/10/26 08:01:28;;;;;;;5.13;2.97;;;13.00;99.90;;;;;;5014762;28;20045;-75
2022/10/26 08:03:55;;;;;;;5.50;1.98;;;13.10;99.90;;;;;;5022980;28;20026;-76
2022/10/26 08:06:22;;;;;;;5.72;2.33;;;13.20;99.90;;;;;;5023686;28;20037;-76
2022/10/26 08:08:49;;;;;;;5.10;2.58;;;13.30;99.90;;;;;;5024161;28;20386;-75
2022/10/26 08:11:16;;;;;;;4.03;2.55;;;13.30;99.90;;;;;;5001157;28;20036;-74
2022/10/26 08:13:42;;;;;;;4.38;2.13;;;13.30;99.90;;;;;;5022825;28;20033;-75
2022/10/26 08:16:09;;;;;;;4.25;2.30;;;13.40;99.90;;;;;;5020804;28;20487;-72
2022/10/26 08:18:35;;;;;;;4.38;2.55;;;13.50;99.90;;;;;;5025283;28;20041;-72
2022/10/26 08:21:04;;;;;;;5.07;2.78;;;13.60;99.90;;;;;;5018557;28;20033;-75
2022/10/26 08:23:31;;;;;;;5.22;3.20;;;13.60;99.90;;;;;;5022011;28;20393;-76
2022/10/26 08:25:59;;;;;;;4.50;2.65;;;13.70;99.90;;;;;;5022296;28;20034;-76
2022/10/26 08:28:26;;;;;;;3.88;2.35;;;13.80;99.90;;;;;;5024755;28;20398;-74
2022/10/26 08:30:52;;;;;;;4.93;1.58;;;13.90;99.90;;;;;;5019465;28;20044;-75
2022/10/26 08:33:19;;;;;;;4.55;2.00;;;14.00;99.90;;;;;;5021453;28;20038;-73
2022/10/26 08:35:45;;;;;;;4.80;1.83;;;14.00;99.90;;;;;;5020947;28;20578;-73
2022/10/26 08:38:11;;;;;;;4.57;2.83;;;14.10;99.90;;;;;;5022183;28;20022;-74
2022/10/26 08:40:41;;;;;;;6.97;2.35;;;14.20;99.90;;;;;;5018184;28;20400;-74
2022/10/26 08:43:26;;;;;;;3.90;1.65;;;14.30;99.90;;;;;;5022125;28;20360;-73
2022/10/26 08:46:04;;;;;;;8.82;3.30;;;14.40;99.90;;;;;;5021989;28;20044;-77
2022/10/26 08:48:39;;;;;;;5.28;2.45;;;14.50;99.90;;;;;;5020142;28;20045;-75
2022/10/26 08:51:14;;;;;;;4.07;2.25;;;14.60;99.90;;;;;;5018776;28;20037;-74
2022/10/26 08:53:59;;;;;;;3.60;2.30;;;14.60;99.90;;;;;;5022194;28;20029;-74
2022/10/26 08:56:28;;;;;;;4.05;1.90;;;14.70;99.90;;;;;;5022567;28;20033;-76
2022/10/26 08:59:04;;;;;;;5.35;3.30;;;14.80;99.90;;;;;;5023951;28;20032;-76
2022/10/26 09:01:32;;;;;;;4.53;1.65;;;14.90;99.90;;;;;;5021454;28;20065;-74
2022/10/26 09:04:02;;;;;;;2.58;1.40;;;15.00;99.90;;;;;;5023420;28;20045;-76
2022/10/26 09:06:57;;;;;;;1.58;0.90;;;15.10;99.90;;;;;;5023336;28;20096;-76
2022/10/26 09:09:37;;;;;;;2.47;1.10;;;15.20;99.90;;;;;;5022190;28;20500;-75
2022/10/26 09:12:24;;;;;;;2.13;1.10;;;15.30;99.90;;;;;;5024424;28;20040;-74
2022/10/26 09:15:12;;;;;;;3.97;0.90;;;15.50;99.90;;;;;;5024498;28;20037;-74
2022/10/26 09:17:50;;;;;;;3.38;0.90;;;15.60;99.90;;;;;;5025081;28;20049;-74
2022/10/26 09:20:37;;;;;;;2.70;0.77;;;15.80;99.90;;;;;;5017976;28;20052;-74
2022/10/26 09:23:34;;;;;;;4.10;1.27;;;15.90;99.90;;;;;;5023859;28;20575;-73
2022/10/26 09:26:02;;;;;;;3.28;1.10;;;16.00;99.90;;;;;;5005829;28;20527;-74
2022/10/26 09:28:33;;;;;;;1.50;0.63;;;16.10;99.90;;;;;;5024539;28;20042;-74
2022/10/26 09:31:02;;;;;;;5.40;1.00;;;16.20;99.90;;;;;;5033158;28;20038;-74
2022/10/26 09:33:31;;;;;;;2.08;0.90;;;16.30;99.90;;;;;;5022632;28;20068;-73
2022/10/26 09:36:02;;;;;;;3.80;0.88;;;16.40;99.90;;;;;;5021735;28;20068;-74
2022/10/26 09:38:46;;;;;;;5.45;0.98;;;16.50;99.90;;;;;;5023044;28;20511;-73
2022/10/26 09:41:27;;;;;;;7.97;1.10;;;16.60;99.90;;;;;;5018548;28;20220;-74
2022/10/26 09:44:08;;;;;;;3.53;0.80;;;16.80;99.90;;;;;;5020828;28;20048;-73
2022/10/26 09:47:04;;;;;;;2.65;0.70;;;16.90;99.90;;;;;;5021895;28;20496;-73
2022/10/26 09:49:43;;;;;;;2.47;0.90;;;17.10;99.90;;;;;;5020493;28;20029;-73
2022/10/26 09:52:09;;;;;;;1.73;0.70;;;17.40;99.90;;;;;;5006465;28;20033;-73
2022/10/26 09:54:35;;;;;;;1.65;0.60;;;17.70;99.90;;;;;;5018045;28;20693;-73
2022/10/26 09:57:04;;;;;;;1.85;0.70;;;18.00;99.90;;;;;;5017770;28;20048;-72
2022/10/26 09:59:35;;;;;;;2.75;0.70;;;18.40;99.90;;;;;;5018523;28;20432;-72
2022/10/26 10:02:38;;;;;;;4.78;1.48;;;18.70;99.90;;;;;;5019966;28;20037;-74
2022/10/26 10:05:37;;;;;;;6.13;4.20;;;19.10;99.90;;;;;;5020441;28;20040;-73
2022/10/26 10:08:23;;;;;;;4.72;2.03;;;19.30;99.90;;;;;;4999594;28;20474;-72
2022/10/26 10:10:57;;;;;;;5.43;2.10;;;19.50;99.90;;;;;;5019109;28;20401;-83
2022/10/26 10:13:26;;;;;;;6.38;1.73;;;19.60;99.90;;;;;;5020473;28;20048;-73
2022/10/26 10:15:55;;;;;;;6.40;4.55;;;19.60;99.90;;;;;;5019721;28;20030;-73
2022/10/26 10:18:22;;;;;;;3.15;1.77;;;19.70;99.90;;;;;;5009847;28;20436;-74
2022/10/26 10:20:52;;;;;;;4.15;1.67;;;19.60;99.90;;;;;;5018415;28;20033;-74
2022/10/26 10:23:26;;;;;;;7.28;2.20;;;19.70;99.90;;;;;;5022139;28;20504;-74
2022/10/26 10:26:01;;;;;;;5.93;2.47;;;19.90;99.90;;;;;;5020644;28;20049;-75
2022/10/26 10:28:28;;;;;;;5.28;1.58;;;19.90;99.90;;;;;;5021414;28;20048;-73
2022/10/26 10:31:00;;;;;;;4.03;0.98;;;20.00;99.90;;;;;;5018870;28;20041;-74
2022/10/26 10:33:40;;;;;;;2.17;0.95;;;20.20;99.90;;;;;;5020552;28;20041;-74
2022/10/26 10:36:19;;;;;;;4.90;1.50;;;20.40;99.90;;;;;;5022168;28;20033;-72
2022/10/26 10:38:48;;;;;;;4.95;1.58;;;20.60;99.90;;;;;;5022708;28;20029;-73
2022/10/26 10:41:20;;;;;;;4.03;1.40;;;21.00;99.90;;;;;;5019722;28;20399;-73
2022/10/26 10:43:55;;;;;;;3.63;1.45;;;21.20;99.90;;;;;;5023224;28;20076;-73
2022/10/26 10:46:25;;;;;;;5.25;1.52;;;21.40;99.90;;;;;;5022824;28;20432;-74
2022/10/26 10:48:59;;;;;;;4.38;1.45;;;21.30;99.90;;;;;;5020485;28;20033;-71
2022/10/26 10:51:26;;;;;;;2.78;0.90;;;21.00;99.90;;;;;;5019462;28;20464;-73
2022/10/26 10:53:55;;;;;;;3.35;0.80;;;20.70;99.90;;;;;;5023184;28;20029;-73
2022/10/26 10:56:24;;;;;;;2.45;0.90;;;20.40;99.90;;;;;;5024784;28;20041;-73
2022/10/26 10:59:22;;;;;;;3.80;0.90;;;20.20;99.90;;;;;;5027234;28;20034;-73
2022/10/26 11:01:55;;;;;;;2.10;0.80;;;19.90;99.90;;;;;;5024263;28;20341;-73
2022/10/26 11:04:50;;;;;;;4.57;1.00;;;19.80;99.90;;;;;;5021535;28;20033;-73
2022/10/26 11:07:18;;;;;;;4.40;1.00;;;19.60;99.90;;;;;;5025755;28;20037;-72
2022/10/26 11:09:48;;;;;;;3.53;1.20;;;19.50;99.90;;;;;;5024618;28;20625;-73
2022/10/26 11:12:29;;;;;;;5.38;1.70;;;19.40;99.90;;;;;;5024571;28;20040;-73
2022/10/26 11:15:05;;;;;;;4.70;1.33;;;19.40;99.90;;;;;;5022801;28;20048;-73
2022/10/26 11:17:44;;;;;;;5.53;1.10;;;19.40;99.90;;;;;;5024792;28;20053;-73
2022/10/26 11:20:16;;;;;;;3.92;1.10;;;19.30;99.90;;;;;;5020160;28;20025;-72
2022/10/26 11:23:04;;;;;;;4.05;1.35;;;19.20;99.90;;;;;;5021458;28;20370;-72
2022/10/26 11:25:43;;;;;;;5.25;1.13;;;19.10;99.90;;;;;;5025179;28;20498;-73
2022/10/26 11:28:18;;;;;;;5.43;1.52;;;19.10;99.90;;;;;;5021966;28;20036;-72
2022/10/26 11:30:50;;;;;;;4.05;0.95;;;19.00;99.90;;;;;;5020848;28;20033;-72
2022/10/26 11:33:35;;;;;;;3.45;0.80;;;19.00;99.90;;;;;;5024104;28;20041;-72
2022/10/26 11:36:06;;;;;;;4.47;0.70;;;19.10;99.90;;;;;;5005003;28;20041;-73
2022/10/26 11:38:59;;;;;;;3.22;0.90;;;19.10;99.90;;;;;;5023936;28;20080;-72
2022/10/26 11:41:44;;;;;;;4.35;1.65;;;19.10;99.90;;;;;;5002654;28;20048;-72
2022/10/26 11:44:50;;;;;;;2.90;1.25;;;19.10;99.90;;;;;;5023473;28;20037;-72
2022/10/26 11:47:39;;;;;;;4.43;1.33;;;19.30;99.90;;;;;;5023189;28;20309;-74
2022/10/26 11:50:24;;;;;;;6.68;2.50;;;19.30;99.90;;;;;;5019124;28;20054;-72
2022/10/26 11:52:55;;;;;;;2.40;0.75;;;19.40;99.90;;;;;;5021211;28;20054;-74
2022/10/26 11:55:22;;;;;;;2.93;0.77;;;19.50;99.90;;;;;;5020083;28;20060;-72
2022/10/26 11:57:51;;;;;;;4.47;1.05;;;19.40;99.90;;;;;;5020511;28;20025;-73
2022/10/26 12:00:19;;;;;;;4.93;1.10;;;19.40;99.90;;;;;;5018687;28;20037;-72
2022/10/26 12:02:55;;;;;;;3.97;1.00;;;19.30;99.90;;;;;;5019746;28;20037;-73
2022/10/26 12:05:26;;;;;;;5.47;0.88;;;19.30;99.90;;;;;;5018493;28;20397;-73
2022/10/26 12:07:57;;;;;;;3.17;0.65;;;19.20;99.90;;;;;;5018788;28;20033;-73
2022/10/26 12:10:31;;;;;;;3.25;0.77;;;19.20;99.90;;;;;;5001948;28;20491;-73
2022/10/26 12:13:12;;;;;;;3.75;0.90;;;19.30;99.90;;;;;;5016060;28;20046;-73
2022/10/26 12:15:45;;;;;;;4.28;0.80;;;19.40;99.90;;;;;;5017403;28;20037;-73
2022/10/26 12:18:25;;;;;;;3.15;0.60;;;19.40;99.90;;;;;;5002558;28;20509;-72
2022/10/26 12:21:01;;;;;;;3.70;0.98;;;19.60;99.90;;;;;;5016649;28;20017;-74
2022/10/26 12:23:30;;;;;;;3.28;0.95;;;19.80;99.90;;;;;;5019891;28;20057;-73
2022/10/26 12:26:22;;;;;;;6.43;1.55;;;19.90;99.90;;;;;;5015567;28;20144;-73
2022/10/26 12:29:00;;;;;;;4.13;0.90;;;19.70;99.90;;;;;;5018913;28;20053;-72
2022/10/26 12:31:36;;;;;;;4.20;1.08;;;19.60;99.90;;;;;;5014695;28;20515;-73
2022/10/26 12:34:28;;;;;;;3.10;0.63;;;19.50;99.90;;;;;;5017632;28;20033;-73
2022/10/26 12:36:54;;;;;;;3.95;0.88;;;19.40;99.90;;;;;;4981313;28;20042;-72
2022/10/26 12:39:41;;;;;;;2.70;0.93;;;19.30;99.90;;;;;;5016546;28;20026;-72
2022/10/26 12:42:07;;;;;;;1.70;0.60;;;19.30;99.90;;;;;;5018057;28;20060;-72
2022/10/26 12:44:56;;;;;;;4.65;0.90;;;19.30;99.90;;;;;;5015962;28;20045;-73
2022/10/26 12:47:29;;;;;;;2.90;0.52;;;19.30;99.90;;;;;;4996429;28;20038;-73
2022/10/26 12:49:58;;;;;;;;;;;19.20;99.90;;;;;;5014615;28;20030;-73
2022/10/26 12:52:48;;;;;;;2.80;0.90;;;19.20;99.90;;;;;;5002382;28;19921;-72
2022/10/26 12:55:45;;;;;;;3.50;0.80;;;19.20;99.90;;;;;;5001191;28;20034;-72
2022/10/26 12:58:29;;;;;;;3.53;0.70;;;19.10;99.90;;;;;;5003343;28;20037;-73
2022/10/26 13:00:58;;;;;;;4.47;1.02;;;19.20;99.90;;;;;;5014275;28;20033;-73
2022/10/26 13:03:31;;;;;;;4.90;0.90;;;19.10;99.90;;;;;;5018517;28;20501;-73
2022/10/26 13:06:04;;;;;;;4.95;0.98;;;19.10;99.90;;;;;;5019632;28;20048;-72
2022/10/26 13:08:49;;;;;;;2.28;0.70;;;19.10;99.90;;;;;;5025953;28;20064;-73
2022/10/26 13:11:41;;;;;;;4.72;0.50;;;19.10;99.90;;;;;;5019872;28;20044;-78
2022/10/26 13:14:23;;;;;;;3.33;0.57;;;19.10;99.90;;;;;;5024049;28;20040;-73
2022/10/26 13:16:50;;;;;;;2.38;0.70;;;19.10;99.90;;;;;;5019997;28;20299;-74